METAR Data
IDs: Format: Raw Decoded Include TAF

Data at: 2109 UTC 18 Sep 2018

KI23 182055Z AUTO 30007KT 10SM CLR 31/15 A2992 RMK AO1
KI23 182035Z AUTO 33008KT 10SM CLR 32/15 A2992 RMK AO1
KI23 182015Z AUTO 29007G14KT 10SM CLR 32/15 A2992 RMK AO1
KI23 181955Z AUTO 27010G15KT 10SM CLR 32/15 A2992 RMK AO1
KI23 181935Z AUTO 27009G15KT 10SM CLR 31/15 A2993 RMK AO1
KI23 181916Z AUTO 29007G16KT 10SM CLR 31/14 A2993 RMK AO1
KI23 181855Z AUTO 28010G16KT 10SM CLR 32/14 A2993 RMK AO1
KI23 181835Z AUTO 27011G15KT 10SM CLR 32/14 A2994 RMK AO1
KI23 181815Z AUTO 26006KT 10SM CLR 31/15 A2994 RMK AO1
KI23 181755Z AUTO 28006KT 10SM CLR 31/15 A2995 RMK AO1
KI23 181735Z AUTO 25006KT 10SM CLR 31/15 A2995 RMK AO1
KI23 181716Z AUTO 25007KT 10SM CLR 31/16 A2995 RMK AO1
KI23 181655Z AUTO 25006KT 10SM CLR 30/16 A2996 RMK AO1
KI23 181635Z AUTO 29007KT 10SM CLR 30/17 A2996 RMK AO1
KI23 181616Z AUTO 33008KT 10SM CLR 30/17 A2997 RMK AO1
KI23 181555Z AUTO 26006KT 10SM CLR 29/17 A2997 RMK AO1
KI23 181535Z AUTO 28007KT 10SM CLR 29/17 A2998 RMK AO1
KI23 181515Z AUTO 26005KT 10SM CLR 29/17 A2998 RMK AO1
KI23 181455Z AUTO 32005KT 10SM CLR 28/17 A2999 RMK AO1
KI23 181435Z AUTO 33004KT 10SM CLR 27/18 A2999 RMK AO1
KI23 181415Z AUTO 30003KT 10SM CLR 26/19 A2999 RMK AO1
KI23 181355Z AUTO 28003KT 10SM CLR 25/20 A2998 RMK AO1
KI23 181335Z AUTO 30003KT 10SM CLR 23/20 A2998 RMK AO1
KI23 181315Z AUTO 00000KT 10SM CLR 22/20 A2998 RMK AO1
KI23 181255Z AUTO 00000KT 10SM CLR 20/19 A2998 RMK AO1
KI23 181235Z AUTO 00000KT 5SM CLR 19/18 A2998 RMK AO1
KI23 181215Z AUTO 00000KT 5SM CLR 18/17 A2998 RMK AO1
KI23 181155Z AUTO 00000KT 1/4SM VV002 16/16 A2998 RMK AO1
KI23 181135Z AUTO 00000KT 1/2SM VV005 15/14 A2997 RMK AO1 VIS M1/4V3
KI23 181115Z AUTO 00000KT 1/2SM VV005 16/16 A2996 RMK AO1
KI23 181055Z AUTO 00000KT 3/4SM VV005 16/16 A2996 RMK AO1
KI23 181035Z AUTO 00000KT 1 1/2SM VV007 16/15 A2995 RMK AO1
KI23 181015Z AUTO 26003KT 3SM CLR 16/16 A2995 RMK AO1
KI23 180955Z AUTO 25003KT 5SM CLR 17/16 A2994 RMK AO1
KI23 180935Z AUTO 00000KT 7SM CLR 17/16 A2994 RMK AO1
KI23 180915Z AUTO 27004KT 7SM CLR 18/17 A2994 RMK AO1
KI23 180855Z AUTO 27004KT 7SM CLR 17/17 A2994 RMK AO1
KI23 180835Z AUTO 27004KT 7SM CLR 17/16 A2994 RMK AO1
KI23 180815Z AUTO 26004KT 7SM CLR 18/17 A2994 RMK AO1
KI23 180755Z AUTO 26004KT 10SM CLR 18/17 A2994 RMK AO1
KI23 180735Z AUTO 25004KT 10SM CLR 18/17 A2994 RMK AO1
KI23 180715Z AUTO 27003KT 10SM CLR 18/17 A2994 RMK AO1
KI23 180655Z AUTO 28003KT 10SM CLR 18/17 A2994 RMK AO1
KI23 180636Z AUTO 28003KT 10SM CLR 18/17 A2994 RMK AO1
KI23 180615Z AUTO 28004KT 10SM CLR 19/18 A2994 RMK AO1
KI23 180555Z AUTO 29005KT 10SM CLR 17/17 A2994 RMK AO1
KI23 180535Z AUTO 29004KT 10SM CLR 17/17 A2994 RMK AO1
KI23 180515Z AUTO 30004KT 10SM CLR 18/17 A2994 RMK AO1
KI23 180455Z AUTO 29003KT 10SM CLR 18/17 A2994 RMK AO1
KI23 180435Z AUTO 29003KT 10SM CLR 18/17 A2994 RMK AO1
KI23 180415Z AUTO 27003KT 10SM CLR 18/17 A2994 RMK AO1
KI23 180355Z AUTO 28004KT 10SM CLR 19/18 A2994 RMK AO1
KI23 180335Z AUTO 28004KT 10SM CLR 18/17 A2994 RMK AO1
KI23 180315Z AUTO 27003KT 10SM CLR 18/17 A2994 RMK AO1
KI23 180255Z AUTO 26003KT 10SM CLR 19/18 A2993 RMK AO1
KI23 180235Z AUTO 00000KT 10SM CLR 18/18 A2993 RMK AO1
KI23 180215Z AUTO 00000KT 10SM SCT046 19/18 A2993 RMK AO1
KI23 180155Z AUTO 27003KT 10SM SCT046 19/18 A2993 RMK AO1
KI23 180135Z AUTO 26003KT 10SM CLR 19/18 A2992 RMK AO1
KI23 180115Z AUTO 25003KT 10SM CLR 20/19 A2991 RMK AO1
KI23 180055Z AUTO 00000KT 10SM CLR 20/19 A2991 RMK AO1
KI23 180035Z AUTO 00000KT 10SM CLR 21/19 A2990 RMK AO1
KI23 180015Z AUTO 00000KT 10SM CLR 21/19 A2989 RMK AO1
KI23 172355Z AUTO 00000KT 10SM CLR 22/19 A2988 RMK AO1
KI23 172335Z AUTO 00000KT 10SM SCT045 23/19 A2988 RMK AO1
KI23 172315Z AUTO 02003KT 10SM SCT045 24/19 A2988 RMK AO1
KI23 172255Z AUTO 02004KT 10SM SCT034 SCT041 SCT048 24/19 A2987 RMK AO1
KI23 172235Z AUTO 01004KT 10SM SCT043 SCT070 25/19 A2987 RMK AO1
KI23 172215Z AUTO 35008KT 10SM SCT035 BKN043 25/19 A2987 RMK AO1
KI23 172155Z AUTO 35007KT 10SM BKN040 BKN045 25/19 A2987 RMK AO1
KI23 172135Z AUTO 35008KT 10SM SCT029 SCT043 25/19 A2986 RMK AO1
KI23 172115Z AUTO 02006KT 10SM SCT028 SCT044 25/19 A2986 RMK AO1
KI23 172055Z AUTO 04009KT 10SM SCT028 BKN042 25/19 A2986 RMK AO1
KI23 172035Z AUTO 03009G15KT 10SM SCT028 SCT040 SCT047 26/19 A2986 RMK AO1
KI23 172015Z AUTO 03008KT 10SM CLR 27/20 A2987 RMK AO1
KI23 171955Z AUTO 04008KT 10SM SCT038 25/20 A2987 RMK AO1
KI23 171935Z AUTO 03007KT 10SM SCT033 BKN040 24/19 A2987 RMK AO1
KI23 171915Z AUTO 03007KT 10SM BKN035 BKN047 23/19 A2987 RMK AO1
KI23 171855Z AUTO 03008KT 10SM BKN037 BKN047 23/20 A2988 RMK AO1
KI23 171835Z AUTO 02007KT 10SM SCT039 23/19 A2989 RMK AO1
KI23 171815Z AUTO 03008KT 10SM SCT016 SCT039 23/20 A2989 RMK AO1
KI23 171755Z AUTO 01008KT 10SM BKN016 BKN023 23/20 A2989 RMK AO1
KI23 171735Z AUTO 03007KT 10SM BKN014 BKN021 23/20 A2990 RMK AO1
KI23 171715Z AUTO 03007KT 10SM BKN014 BKN021 23/20 A2990 RMK AO1
KI23 171655Z AUTO 03009KT 10SM OVC012 22/20 A2991 RMK AO1
KI23 171635Z AUTO 02008KT 10SM OVC012 22/20 A2991 RMK AO1
KI23 171615Z AUTO 03010KT 10SM OVC010 22/20 A2991 RMK AO1
KI23 171555Z AUTO 03009KT 10SM OVC008 21/20 A2992 RMK AO1
KI23 171535Z AUTO 03008KT 10SM OVC008 21/20 A2992 RMK AO1
KI23 171515Z AUTO 04009KT 10SM OVC008 21/20 A2992 RMK AO1
KI23 171455Z AUTO 03008G14KT 10SM OVC008 21/20 A2993 RMK AO1 P0001
KI23 171435Z AUTO 03011KT 10SM OVC008 20/19 A2993 RMK AO1
KI23 171415Z AUTO 04010G14KT 10SM BKN006 BKN010 BKN055 20/19 A2993 RMK AO1
KI23 171355Z AUTO 04008KT 10SM BKN006 20/19 A2993 RMK AO1 P0001
KI23 171335Z AUTO 04009KT 10SM BKN006 20/19 A2993 RMK AO1 P0001
KI23 171315Z AUTO 04008KT 7SM SCT006 19/19 A2993 RMK AO1 P0001
KI23 171255Z AUTO 04009KT 7SM SCT005 19/19 A2993 RMK AO1 P0002
KI23 171235Z AUTO 04008KT 7SM SCT005 SCT022 20/18 A2994 RMK AO1 P0001
KI23 171215Z AUTO 05010G14KT 10SM SCT026 20/18 A2994 RMK AO1
KI23 171155Z AUTO 05008KT 10SM OVC028 20/18 A2994 RMK AO1
KI23 171135Z AUTO 05007KT 10SM BKN030 OVC060 20/18 A2994 RMK AO1
KI23 171115Z AUTO 05008KT 10SM SCT032 BKN060 20/18 A2994 RMK AO1
KI23 171055Z AUTO 05007KT 10SM BKN034 20/18 A2993 RMK AO1
KI23 171035Z AUTO 05007KT 10SM SCT034 20/18 A2994 RMK AO1
KI23 171015Z AUTO 05007KT 10SM CLR 20/18 A2994 RMK AO1
KI23 170955Z AUTO 05008KT 10SM CLR 20/18 A2994 RMK AO1
KI23 170935Z AUTO 04007KT 10SM CLR 20/18 A2994 RMK AO1
KI23 170915Z AUTO 05008KT 10SM CLR 20/18 A2994 RMK AO1